Time;durP1;ratioP1;P1;durP2;ratioP2;P2;SDS_P1;SDS_P2;PMS_P1;PMS_P2;Temp;Humidity;BMP_temperature;BMP_pressure;BME280_temperature;BME280_humidity;BME280_pressure;Samples;Min_cycle;Max_cycle;Signal;HPM_P1;HPM_P2
2022/04/12 00:01:09;;;;;;;8.13;6.85;;;14.20;51.30;;;;;;4929529;29;20569;-90
2022/04/12 00:03:35;;;;;;;8.05;5.75;;;14.10;51.10;;;;;;4928835;29;20036;-91
2022/04/12 00:06:01;;;;;;;7.40;6.43;;;14.10;51.20;;;;;;4920444;29;20032;-93
2022/04/12 00:08:27;;;;;;;8.95;6.30;;;14.10;51.30;;;;;;4928843;29;20043;-95
2022/04/12 00:10:53;;;;;;;7.45;6.20;;;14.10;51.40;;;;;;4930475;29;20118;-94
2022/04/12 00:13:19;;;;;;;7.78;5.60;;;14.00;51.20;;;;;;4930331;29;20055;-95
2022/04/12 00:15:49;;;;;;;7.75;6.30;;;14.10;51.50;;;;;;4931889;29;20509;-95
2022/04/12 00:21:01;;;;;;;9.07;7.25;;;14.00;51.40;;;;;;4930185;29;20032;-89
2022/04/12 00:23:27;;;;;;;8.95;7.05;;;14.00;51.50;;;;;;4930911;29;20164;-90
2022/04/12 00:25:53;;;;;;;8.52;6.22;;;13.90;51.40;;;;;;4931544;29;20487;-90
2022/04/12 00:28:20;;;;;;;7.50;6.78;;;13.90;51.40;;;;;;4932281;29;20491;-89
2022/04/12 00:30:46;;;;;;;8.65;6.38;;;13.90;51.50;;;;;;4933049;29;20094;-91
2022/04/12 00:33:12;;;;;;;7.78;6.28;;;13.90;51.50;;;;;;4933741;29;20032;-93
2022/04/12 00:35:38;;;;;;;7.93;6.28;;;13.90;51.60;;;;;;4948743;29;20056;-93
2022/04/12 00:41:04;;;;;;;11.30;6.75;;;13.80;51.50;;;;;;4920203;29;20087;-92
2022/04/12 00:43:33;;;;;;;9.10;6.70;;;13.80;51.50;;;;;;4932948;29;20068;-92
2022/04/12 00:46:02;;;;;;;9.20;6.78;;;13.80;52.10;;;;;;4917093;29;20099;-93
2022/04/12 00:48:32;;;;;;;8.50;6.05;;;13.80;51.60;;;;;;4923519;29;20363;-93
2022/04/12 00:50:59;;;;;;;7.45;6.50;;;13.80;51.60;;;;;;4936720;29;20055;-95
2022/04/12 00:53:26;;;;;;;8.10;5.70;;;13.80;51.70;;;;;;4936060;29;20032;-95
2022/04/12 00:55:53;;;;;;;11.13;6.65;;;13.80;52.30;;;;;;4931274;29;20027;-94
2022/04/12 00:58:22;;;;;;;10.57;6.88;;;13.80;51.80;;;;;;4935778;29;20334;-93
2022/04/12 01:00:49;;;;;;;7.43;6.45;;;13.80;51.80;;;;;;4933753;29;20131;-96
2022/04/12 01:03:15;;;;;;;9.93;6.35;;;13.80;51.90;;;;;;4937081;29;20095;-95
2022/04/12 01:05:44;;;;;;;7.30;6.53;;;13.80;51.90;;;;;;4919576;29;20039;-96
2022/04/12 01:08:10;;;;;;;11.13;7.22;;;13.80;52.00;;;;;;4936007;29;20039;-91
2022/04/12 01:10:37;;;;;;;8.73;7.15;;;13.80;52.00;;;;;;4931737;29;20046;-93
2022/04/12 01:13:03;;;;;;;9.25;7.15;;;13.80;52.10;;;;;;4930885;29;20027;-93
2022/04/12 01:15:29;;;;;;;10.68;6.55;;;13.70;51.90;;;;;;4928212;29;20032;-92
2022/04/12 01:17:56;;;;;;;8.50;6.10;;;13.80;52.10;;;;;;4931453;29;20047;-90
2022/04/12 01:20:24;;;;;;;7.95;6.93;;;13.80;52.10;;;;;;4927363;29;20032;-92
2022/04/12 01:23:09;;;;;;;8.35;6.57;;;13.80;52.10;;;;;;4950851;28;20032;-92
2022/04/12 01:25:37;;;;;;;7.85;6.93;;;13.80;52.10;;;;;;4946863;28;20040;-92
2022/04/12 01:28:03;;;;;;;7.78;6.57;;;13.80;52.10;;;;;;4923776;29;20024;-90
2022/04/12 01:30:29;;;;;;;9.80;7.63;;;13.80;52.10;;;;;;4957913;29;20076;-90
2022/04/12 01:32:55;;;;;;;11.32;7.38;;;13.80;52.10;;;;;;4953544;28;20042;-89
2022/04/12 01:35:21;;;;;;;9.63;6.95;;;13.80;52.80;;;;;;4954405;29;20088;-92
2022/04/12 01:37:47;;;;;;;8.32;7.00;;;13.80;52.20;;;;;;4948648;29;20340;-85
2022/04/12 01:40:13;;;;;;;8.35;6.78;;;13.70;52.10;;;;;;4967669;28;20099;-88
2022/04/12 01:42:39;;;;;;;8.40;7.03;;;13.70;52.20;;;;;;4953952;29;20067;-89
2022/04/12 01:45:09;;;;;;;7.38;6.40;;;13.70;52.30;;;;;;4937566;29;20066;-88
2022/04/12 01:47:36;;;;;;;9.55;7.00;;;13.60;52.10;;;;;;4943571;29;20043;-90
2022/04/12 01:50:03;;;;;;;9.82;6.82;;;13.60;52.20;;;;;;4934497;29;20195;-92
2022/04/12 01:52:29;;;;;;;9.55;7.22;;;13.60;52.80;;;;;;4934885;29;20027;-91
2022/04/12 01:54:55;;;;;;;8.85;7.47;;;13.50;52.10;;;;;;4915293;29;20179;-91
2022/04/12 01:57:21;;;;;;;11.05;7.15;;;13.50;52.20;;;;;;4934009;29;20045;-92
2022/04/12 01:59:47;;;;;;;10.32;7.70;;;13.50;52.30;;;;;;4953731;29;20055;-95
2022/04/12 02:02:13;;;;;;;9.23;7.60;;;13.40;52.20;;;;;;4927990;29;20083;-94
2022/04/12 02:04:38;;;;;;;9.05;7.43;;;13.40;52.30;;;;;;4933043;29;20035;-92
2022/04/12 02:07:05;;;;;;;10.25;7.63;;;13.40;52.40;;;;;;4936593;29;20522;-92
2022/04/12 02:09:31;;;;;;;9.05;7.43;;;13.40;52.40;;;;;;4931062;29;20091;-91
2022/04/12 02:11:58;;;;;;;13.13;7.35;;;13.30;52.30;;;;;;4910526;29;20044;-94
2022/04/12 02:14:24;;;;;;;8.90;6.85;;;13.30;52.30;;;;;;4936237;29;20095;-92
2022/04/12 02:16:50;;;;;;;9.35;8.23;;;13.30;52.40;;;;;;4937467;29;20043;-96
2022/04/12 02:19:16;;;;;;;8.80;7.95;;;13.30;52.40;;;;;;4950362;29;20027;-90
2022/04/12 02:21:42;;;;;;;9.52;7.30;;;13.30;52.50;;;;;;4928643;29;20035;-95
2022/04/12 02:24:08;;;;;;;7.18;6.47;;;13.20;52.40;;;;;;4933374;29;20043;-89
2022/04/12 02:26:34;;;;;;;8.38;7.40;;;13.20;52.40;;;;;;4934917;29;20043;-91
2022/04/12 02:29:00;;;;;;;11.43;7.97;;;13.20;53.10;;;;;;4939805;29;20027;-93
2022/04/12 02:31:26;;;;;;;7.97;7.00;;;13.10;52.30;;;;;;4945034;29;20036;-93
2022/04/12 02:33:52;;;;;;;9.10;7.60;;;13.10;52.40;;;;;;4927852;29;20024;-94
2022/04/12 02:36:18;;;;;;;10.10;7.55;;;13.10;52.40;;;;;;4933518;29;20047;-95
2022/04/12 02:38:44;;;;;;;11.07;8.20;;;13.10;53.10;;;;;;4918816;29;20154;-88
2022/04/12 02:41:11;;;;;;;8.68;7.85;;;13.10;52.50;;;;;;4940103;29;20510;-89
2022/04/12 02:43:36;;;;;;;8.55;7.65;;;13.10;52.60;;;;;;4929157;29;20091;-90
2022/04/12 02:46:02;;;;;;;10.38;7.88;;;13.10;52.60;;;;;;4938006;29;20032;-91
2022/04/12 02:48:28;;;;;;;11.25;8.40;;;13.10;52.60;;;;;;4945140;28;20031;-89
2022/04/12 02:50:54;;;;;;;10.73;8.38;;;13.10;52.60;;;;;;4947471;29;20020;-86
2022/04/12 02:53:20;;;;;;;9.63;7.80;;;13.10;52.60;;;;;;4947890;28;20052;-90
2022/04/12 02:55:46;;;;;;;10.85;7.97;;;13.10;52.60;;;;;;4950606;28;20044;-95
2022/04/12 02:58:12;;;;;;;9.82;7.60;;;13.10;52.70;;;;;;4952727;29;20055;-92
2022/04/12 03:00:38;;;;;;;10.00;7.82;;;13.10;52.70;;;;;;4948907;29;20039;-96
2022/04/12 03:03:03;;;;;;;9.55;7.80;;;13.10;52.70;;;;;;4954650;28;20035;-96
2022/04/12 03:05:29;;;;;;;11.13;7.93;;;13.00;52.60;;;;;;4938359;29;20028;-92
2022/04/12 03:07:55;;;;;;;8.65;7.45;;;13.10;52.80;;;;;;4930812;29;20035;-96
2022/04/12 03:10:21;;;;;;;10.65;8.23;;;13.10;52.80;;;;;;4936488;29;20123;-91
2022/04/12 03:12:47;;;;;;;10.23;7.53;;;13.00;52.70;;;;;;4936296;29;20526;-95
2022/04/12 03:15:13;;;;;;;12.88;10.07;;;13.10;52.90;;;;;;4928795;29;20054;-96
2022/04/12 03:17:38;;;;;;;8.85;7.80;;;13.10;52.90;;;;;;4930167;29;20040;-93
2022/04/12 03:20:05;;;;;;;10.60;7.97;;;13.10;52.90;;;;;;4922101;29;20108;-93
2022/04/12 03:22:31;;;;;;;9.32;8.02;;;13.10;52.90;;;;;;4916676;29;20202;-93
2022/04/12 03:24:57;;;;;;;12.05;9.10;;;13.10;52.90;;;;;;4912222;29;20032;-93
2022/04/12 03:27:22;;;;;;;9.85;8.80;;;13.10;53.00;;;;;;4923594;29;20575;-92
2022/04/12 03:29:48;;;;;;;11.93;8.43;;;13.10;53.00;;;;;;4921767;29;20028;-94
2022/04/12 03:32:14;;;;;;;10.98;7.95;;;13.10;53.00;;;;;;4929309;29;20436;-94
2022/04/12 03:34:41;;;;;;;9.60;8.55;;;13.10;53.00;;;;;;4936968;29;20024;-95
2022/04/12 03:37:07;;;;;;;11.60;9.13;;;13.10;53.10;;;;;;4934003;29;20027;-90
2022/04/12 03:39:33;;;;;;;10.13;8.52;;;13.10;53.10;;;;;;4932589;29;20466;-96
2022/04/12 03:41:59;;;;;;;9.57;8.25;;;13.10;53.10;;;;;;4924726;29;20043;-90
2022/04/12 03:44:25;;;;;;;10.23;8.73;;;13.10;53.20;;;;;;4947915;28;20045;-95
2022/04/12 03:46:51;;;;;;;11.02;9.25;;;13.10;53.30;;;;;;4930298;29;20487;-93
2022/04/12 03:49:17;;;;;;;11.68;8.82;;;13.10;53.30;;;;;;4916551;29;20039;-94
2022/04/12 03:51:42;;;;;;;10.40;8.65;;;13.10;53.30;;;;;;4925506;29;20519;-96
2022/04/12 03:54:09;;;;;;;9.90;8.68;;;13.10;53.30;;;;;;4933213;29;20097;-95
2022/04/12 03:56:35;;;;;;;8.65;7.75;;;13.10;53.30;;;;;;4928495;29;20036;-88
2022/04/12 03:59:00;;;;;;;10.50;8.45;;;13.10;53.30;;;;;;4923202;29;20038;-88
2022/04/12 04:01:28;;;;;;;9.32;8.35;;;13.10;53.30;;;;;;4909116;29;20054;-87
2022/04/12 04:03:58;;;;;;;10.13;8.20;;;13.10;53.40;;;;;;4930133;29;20126;-88
2022/04/12 04:06:24;;;;;;;12.00;8.02;;;13.10;53.50;;;;;;4922502;29;20043;-88
2022/04/12 04:08:50;;;;;;;10.52;7.82;;;13.10;53.40;;;;;;4926958;29;20044;-88
2022/04/12 04:11:17;;;;;;;12.15;8.30;;;13.10;53.50;;;;;;4930487;29;20495;-90
2022/04/12 04:13:42;;;;;;;11.75;8.07;;;13.10;53.50;;;;;;4931721;29;20027;-91
2022/04/12 04:16:08;;;;;;;11.15;8.27;;;13.10;53.50;;;;;;4913290;29;20400;-90
2022/04/12 04:18:34;;;;;;;10.18;8.23;;;13.00;53.40;;;;;;4927827;29;20091;-93
2022/04/12 04:21:02;;;;;;;12.00;8.52;;;13.10;53.50;;;;;;4931350;29;20368;-92
2022/04/12 04:23:28;;;;;;;8.75;7.90;;;13.10;53.60;;;;;;4932387;29;20248;-90
2022/04/12 04:25:54;;;;;;;9.85;8.23;;;13.10;53.60;;;;;;4913839;29;20055;-87
2022/04/12 04:28:23;;;;;;;10.40;9.30;;;13.00;53.40;;;;;;4940240;29;20073;-85
2022/04/12 04:30:50;;;;;;;9.25;8.20;;;13.10;53.60;;;;;;4930631;29;20047;-86
2022/04/12 04:33:19;;;;;;;10.75;8.93;;;13.10;53.60;;;;;;4930651;29;20040;-86
2022/04/12 04:35:46;;;;;;;10.38;8.57;;;13.10;53.70;;;;;;4918340;29;20399;-84
2022/04/12 04:38:12;;;;;;;10.52;8.50;;;13.00;53.50;;;;;;4929365;29;20059;-86
2022/04/12 04:40:39;;;;;;;10.32;8.10;;;13.00;53.60;;;;;;4929018;29;20443;-85
2022/04/12 04:43:06;;;;;;;9.20;8.30;;;13.00;53.70;;;;;;4921219;29;20031;-83
2022/04/12 04:45:32;;;;;;;9.10;7.70;;;13.00;53.80;;;;;;4925311;29;20119;-87
2022/04/12 04:47:59;;;;;;;12.98;8.57;;;13.00;53.90;;;;;;4908532;29;20152;-86
2022/04/12 04:50:29;;;;;;;12.68;8.40;;;13.00;54.00;;;;;;4929354;29;20078;-86
2022/04/12 04:52:56;;;;;;;12.10;8.82;;;13.00;54.10;;;;;;4927304;29;20043;-86
2022/04/12 04:55:23;;;;;;;8.75;7.72;;;13.00;54.20;;;;;;4925395;29;20020;-87
2022/04/12 04:57:53;;;;;;;11.02;7.93;;;13.00;54.30;;;;;;4918418;29;20048;-90
2022/04/12 05:00:20;;;;;;;11.95;8.57;;;13.00;54.90;;;;;;4929166;28;20063;-88
2022/04/12 05:02:48;;;;;;;12.15;9.20;;;13.00;54.30;;;;;;4927105;29;20475;-87
2022/04/12 05:05:15;;;;;;;10.52;8.52;;;13.00;54.50;;;;;;4910673;29;20028;-87
2022/04/12 05:07:44;;;;;;;11.68;8.48;;;13.00;55.10;;;;;;4928233;29;20042;-88
2022/04/12 05:10:14;;;;;;;12.15;8.98;;;13.00;54.60;;;;;;4918360;29;20043;-84
2022/04/12 05:12:40;;;;;;;11.05;7.70;;;13.00;54.70;;;;;;4930744;29;20271;-89
2022/04/12 05:15:06;;;;;;;9.98;8.23;;;13.00;54.80;;;;;;4910280;29;20279;-86
2022/04/12 05:17:32;;;;;;;9.55;8.00;;;13.00;54.80;;;;;;4933887;29;20066;-94
2022/04/12 05:19:58;;;;;;;11.85;8.48;;;13.00;54.90;;;;;;4934188;29;20507;-89
2022/04/12 05:22:24;;;;;;;8.43;7.63;;;13.10;55.10;;;;;;4932595;29;20373;-85
2022/04/12 05:24:50;;;;;;;9.93;8.88;;;13.10;55.20;;;;;;4927802;29;20467;-91
2022/04/12 05:27:17;;;;;;;9.98;8.43;;;13.10;55.20;;;;;;4933242;29;20036;-79
2022/04/12 05:29:43;;;;;;;10.27;8.07;;;13.10;55.30;;;;;;4923616;29;20292;-78
2022/04/12 05:32:12;;;;;;;10.35;7.70;;;13.10;55.30;;;;;;4926899;29;20049;-77
2022/04/12 05:34:43;;;;;;;8.52;7.32;;;13.10;55.40;;;;;;4927880;29;20126;-78
2022/04/12 05:37:09;;;;;;;9.18;7.50;;;13.10;55.50;;;;;;4924231;29;20071;-79
2022/04/12 05:39:35;;;;;;;8.07;7.00;;;13.10;55.50;;;;;;4920316;29;20510;-77
2022/04/12 05:42:02;;;;;;;10.00;8.43;;;13.10;55.50;;;;;;4927194;29;20510;-79
2022/04/12 05:44:29;;;;;;;9.07;8.18;;;13.20;55.80;;;;;;4925717;28;20114;-79
2022/04/12 05:46:55;;;;;;;10.00;8.13;;;13.10;55.60;;;;;;4922265;29;20040;-81
2022/04/12 05:49:24;;;;;;;10.05;7.75;;;13.10;55.70;;;;;;4908513;29;20050;-78
2022/04/12 05:51:50;;;;;;;6.65;5.78;;;13.20;55.90;;;;;;4921162;29;20028;-79
2022/04/12 05:54:16;;;;;;;9.32;7.22;;;13.20;56.20;;;;;;4922440;29;20043;-79
2022/04/12 05:56:42;;;;;;;9.45;6.85;;;13.20;56.80;;;;;;4918450;29;20126;-77
2022/04/12 05:59:08;;;;;;;7.55;6.70;;;13.30;57.20;;;;;;4925843;29;20352;-78
2022/04/12 06:01:34;;;;;;;8.55;6.68;;;13.30;57.20;;;;;;4915775;29;20353;-77
2022/04/12 06:04:00;;;;;;;9.02;6.45;;;13.30;57.30;;;;;;4923087;29;20985;-77
2022/04/12 06:06:27;;;;;;;7.47;6.78;;;13.30;57.40;;;;;;4920804;29;20070;-78
2022/04/12 06:08:53;;;;;;;11.38;8.18;;;13.30;57.50;;;;;;4921659;29;20127;-78
2022/04/12 06:11:19;;;;;;;8.93;7.45;;;13.40;57.70;;;;;;4940193;28;20051;-78
2022/04/12 06:13:45;;;;;;;7.18;6.32;;;13.40;57.80;;;;;;4920256;29;20841;-79
2022/04/12 06:16:11;;;;;;;7.88;6.40;;;13.40;57.80;;;;;;4926194;29;20047;-76
2022/04/12 06:18:38;;;;;;;8.52;7.53;;;13.40;57.90;;;;;;4924531;29;20070;-76
2022/04/12 06:21:04;;;;;;;8.80;7.00;;;13.40;57.90;;;;;;4923165;29;20035;-76
2022/04/12 06:23:30;;;;;;;8.85;7.13;;;13.40;58.00;;;;;;4927436;29;20034;-75
2022/04/12 06:25:55;;;;;;;9.15;7.78;;;13.40;58.10;;;;;;4925196;29;20146;-76
2022/04/12 06:28:21;;;;;;;8.77;7.55;;;13.40;58.10;;;;;;4926108;29;20122;-75
2022/04/12 06:30:50;;;;;;;8.82;7.93;;;13.40;58.20;;;;;;4922283;29;20151;-76
2022/04/12 06:33:16;;;;;;;9.30;7.50;;;13.40;58.30;;;;;;4914151;29;20152;-78
2022/04/12 06:35:41;;;;;;;11.57;8.07;;;13.40;58.40;;;;;;4922486;29;20384;-77
2022/04/12 06:38:09;;;;;;;10.13;7.70;;;13.40;58.50;;;;;;4926939;29;20063;-76
2022/04/12 06:40:35;;;;;;;9.43;7.53;;;13.40;59.10;;;;;;4944942;28;20034;-77
2022/04/12 06:43:01;;;;;;;9.05;7.57;;;13.40;58.60;;;;;;4951252;28;20071;-78
2022/04/12 06:45:27;;;;;;;11.73;7.72;;;13.40;58.60;;;;;;4944865;29;20099;-78
2022/04/12 06:47:54;;;;;;;8.90;7.95;;;13.40;58.60;;;;;;4939702;29;20087;-78
2022/04/12 06:50:20;;;;;;;10.75;8.35;;;13.40;58.70;;;;;;4946180;29;20046;-77
2022/04/12 06:52:46;;;;;;;8.40;7.60;;;13.40;58.70;;;;;;4942387;29;20075;-75
2022/04/12 06:55:12;;;;;;;8.60;7.70;;;13.40;58.80;;;;;;4923903;29;20035;-76
2022/04/12 06:57:38;;;;;;;8.98;7.88;;;13.40;58.80;;;;;;4918899;29;20472;-76
2022/04/12 07:00:07;;;;;;;9.75;8.57;;;13.40;58.90;;;;;;4926390;29;20031;-76
2022/04/12 07:02:32;;;;;;;9.57;8.35;;;13.50;59.20;;;;;;4925751;29;20331;-76
2022/04/12 07:05:05;;;;;;;10.07;8.55;;;13.50;59.20;;;;;;4923079;29;20050;-76
2022/04/12 07:07:38;;;;;;;10.25;8.52;;;13.50;59.20;;;;;;4923461;29;20507;-76
2022/04/12 07:10:10;;;;;;;9.88;8.70;;;13.50;59.20;;;;;;4924973;29;20032;-74
2022/04/12 07:12:37;;;;;;;9.75;8.18;;;13.50;59.20;;;;;;4922106;29;20146;-74
2022/04/12 07:15:03;;;;;;;10.10;8.63;;;13.50;59.20;;;;;;4915810;29;20036;-74
2022/04/12 07:17:29;;;;;;;9.77;8.20;;;13.50;59.30;;;;;;4925802;29;20039;-75
2022/04/12 07:19:55;;;;;;;8.90;8.00;;;13.50;59.30;;;;;;4921330;29;20024;-75
2022/04/12 07:22:21;;;;;;;11.77;8.50;;;13.50;59.30;;;;;;4922448;29;20086;-76
2022/04/12 07:24:47;;;;;;;10.10;8.25;;;13.60;59.50;;;;;;4918664;28;20039;-74
2022/04/12 07:27:13;;;;;;;10.75;7.85;;;13.60;59.50;;;;;;4922290;29;20031;-75
2022/04/12 07:29:39;;;;;;;8.82;7.93;;;13.60;59.50;;;;;;4926144;29;20035;-77
2022/04/12 07:32:06;;;;;;;9.80;8.70;;;13.60;59.50;;;;;;4925535;29;20039;-75
2022/04/12 07:34:32;;;;;;;8.23;7.35;;;13.70;59.60;;;;;;4931893;29;20082;-75
2022/04/12 07:36:58;;;;;;;8.10;7.28;;;13.70;59.60;;;;;;4927094;28;20575;-75
2022/04/12 07:39:24;;;;;;;7.90;7.10;;;13.70;59.60;;;;;;4924194;29;20060;-74
2022/04/12 07:41:51;;;;;;;8.40;7.53;;;13.70;59.60;;;;;;4922024;29;20091;-75
2022/04/12 07:44:19;;;;;;;8.95;8.07;;;13.70;59.60;;;;;;4925430;29;20039;-74
2022/04/12 07:46:46;;;;;;;9.23;8.32;;;13.70;59.70;;;;;;4923519;29;20491;-75
2022/04/12 07:49:12;;;;;;;11.60;8.52;;;13.80;60.40;;;;;;4921281;29;20039;-74
2022/04/12 07:51:38;;;;;;;8.20;7.40;;;13.80;59.90;;;;;;4923230;29;20051;-76
2022/04/12 07:54:06;;;;;;;8.63;7.13;;;13.80;59.90;;;;;;4918810;29;20043;-78
2022/04/12 07:56:33;;;;;;;7.75;5.72;;;13.80;60.00;;;;;;4922808;29;20407;-77
2022/04/12 07:58:59;;;;;;;6.57;5.32;;;13.80;60.30;;;;;;4939830;28;20122;-78
2022/04/12 08:01:25;;;;;;;7.07;4.95;;;14.00;61.30;;;;;;4924591;29;20086;-78
2022/04/12 08:03:51;;;;;;;7.95;7.05;;;14.10;61.60;;;;;;4924515;29;20063;-79
2022/04/12 08:06:19;;;;;;;6.53;5.30;;;14.30;61.80;;;;;;4919780;29;20032;-76
2022/04/12 08:08:45;;;;;;;7.45;6.05;;;14.40;61.90;;;;;;4918423;29;20037;-76
2022/04/12 08:11:11;;;;;;;6.20;5.45;;;14.50;61.90;;;;;;4939198;29;20040;-75
2022/04/12 08:13:37;;;;;;;6.53;4.97;;;14.50;61.80;;;;;;4927343;29;20028;-76
2022/04/12 08:16:04;;;;;;;8.55;5.85;;;14.60;61.90;;;;;;4925939;29;20051;-76
2022/04/12 08:18:30;;;;;;;6.05;5.40;;;14.60;61.80;;;;;;4926490;29;20028;-76
2022/04/12 08:20:56;;;;;;;8.30;6.18;;;14.70;61.90;;;;;;4918235;29;20493;-78
2022/04/12 08:23:22;;;;;;;8.50;5.57;;;14.70;61.90;;;;;;4925986;29;20110;-76
2022/04/12 08:25:49;;;;;;;6.97;5.57;;;14.70;61.80;;;;;;4920774;29;20091;-76
2022/04/12 08:28:16;;;;;;;6.85;5.68;;;14.80;61.90;;;;;;4941092;29;20032;-76
2022/04/12 08:30:42;;;;;;;7.38;5.88;;;14.80;61.90;;;;;;4940852;29;20015;-77
2022/04/12 08:33:08;;;;;;;5.65;5.10;;;14.90;62.00;;;;;;4937581;29;20032;-78
2022/04/12 08:35:34;;;;;;;8.20;6.90;;;14.90;61.90;;;;;;4928362;29;20087;-78
2022/04/12 08:37:59;;;;;;;9.02;5.80;;;14.90;61.90;;;;;;4944768;29;20039;-77
2022/04/12 08:40:25;;;;;;;7.50;5.78;;;14.90;61.90;;;;;;4943376;29;20047;-76
2022/04/12 08:42:57;;;;;;;7.93;5.47;;;14.90;61.90;;;;;;4944441;29;20032;-77
2022/04/12 08:45:23;;;;;;;6.90;5.80;;;14.90;61.90;;;;;;4948156;29;20092;-78
2022/04/12 08:47:50;;;;;;;6.20;5.60;;;15.00;62.10;;;;;;4939777;29;20070;-77
2022/04/12 08:50:16;;;;;;;8.80;6.60;;;15.00;62.10;;;;;;4933026;29;20522;-76
2022/04/12 08:52:42;;;;;;;8.10;6.30;;;15.00;62.00;;;;;;4927698;29;20019;-77
2022/04/12 08:55:08;;;;;;;6.80;5.30;;;15.10;62.10;;;;;;4922600;29;20038;-79
2022/04/12 08:57:34;;;;;;;6.78;5.55;;;15.20;62.20;;;;;;4923645;29;20047;-79
2022/04/12 09:00:01;;;;;;;6.88;5.15;;;15.30;62.20;;;;;;4925513;29;20036;-78
2022/04/12 09:02:27;;;;;;;8.13;5.90;;;15.40;62.20;;;;;;4928924;29;20554;-78
2022/04/12 09:04:53;;;;;;;6.93;5.63;;;15.50;62.20;;;;;;4927947;29;20035;-78
2022/04/12 09:07:25;;;;;;;9.48;5.60;;;15.60;62.20;;;;;;4927635;29;20032;-78
2022/04/12 09:09:51;;;;;;;6.50;5.20;;;15.60;62.10;;;;;;4941510;28;20134;-78
2022/04/12 09:12:18;;;;;;;6.35;5.28;;;15.70;62.10;;;;;;4928071;29;20035;-78
2022/04/12 09:14:53;;;;;;;6.22;5.63;;;15.70;62.00;;;;;;4929096;29;20220;-78
2022/04/12 09:17:33;;;;;;;6.95;5.20;;;15.90;62.40;;;;;;4930610;29;20070;-78
2022/04/12 09:20:00;;;;;;;6.25;4.78;;;15.90;62.30;;;;;;4930173;29;20047;-78
2022/04/12 09:22:28;;;;;;;5.40;4.47;;;16.00;62.30;;;;;;4929178;29;20035;-77
2022/04/12 09:24:56;;;;;;;6.53;5.72;;;16.20;62.40;;;;;;4923374;29;20131;-78
2022/04/12 09:27:24;;;;;;;7.28;5.97;;;16.20;62.30;;;;;;4926657;29;20448;-79
2022/04/12 09:29:53;;;;;;;6.18;4.80;;;16.40;62.50;;;;;;4930997;29;20042;-78
2022/04/12 09:32:21;;;;;;;5.55;4.82;;;16.40;62.50;;;;;;4926499;29;20411;-78
2022/04/12 09:34:47;;;;;;;5.97;4.53;;;16.50;62.60;;;;;;4931196;29;20039;-78
2022/04/12 09:37:24;;;;;;;6.38;4.10;;;16.60;62.60;;;;;;4933031;29;20054;-78
2022/04/12 09:40:00;;;;;;;6.15;3.95;;;16.70;62.60;;;;;;4928937;29;20052;-79
2022/04/12 09:42:55;;;;;;;5.15;4.00;;;16.90;62.60;;;;;;4932254;29;20035;-78
2022/04/12 09:45:30;;;;;;;7.03;3.97;;;17.10;62.60;;;;;;4933213;29;20538;-79
2022/04/12 09:47:58;;;;;;;6.72;4.07;;;17.10;62.30;;;;;;4931724;29;20039;-80
2022/04/12 09:50:26;;;;;;;7.78;4.95;;;17.20;62.30;;;;;;4931807;29;20562;-81
2022/04/12 09:52:55;;;;;;;7.25;3.72;;;17.20;62.30;;;;;;4929644;29;20035;-81
2022/04/12 09:55:49;;;;;;;12.77;4.32;;;17.20;62.30;;;;;;4922872;29;20051;-79
2022/04/12 09:58:20;;;;;;;7.30;3.10;;;17.20;62.30;;;;;;4920709;29;20180;-77
2022/04/12 10:00:49;;;;;;;3.25;2.72;;;17.20;62.20;;;;;;4925306;29;20095;-77
2022/04/12 10:03:19;;;;;;;3.75;3.28;;;17.20;62.20;;;;;;4929285;29;20487;-77
2022/04/12 10:05:46;;;;;;;6.28;3.45;;;17.30;62.40;;;;;;4926832;29;20459;-78
2022/04/12 10:08:15;;;;;;;5.97;3.40;;;17.30;62.30;;;;;;4926946;29;20040;-78
2022/04/12 10:10:43;;;;;;;8.27;2.83;;;17.30;62.80;;;;;;4926117;29;20443;-78
2022/04/12 10:13:10;;;;;;;6.05;3.80;;;17.30;62.10;;;;;;4925312;29;20478;-77
2022/04/12 10:15:37;;;;;;;4.53;3.28;;;17.30;62.10;;;;;;4927606;29;20119;-77
2022/04/12 10:18:04;;;;;;;5.22;3.30;;;17.30;62.10;;;;;;4923602;29;20063;-78
2022/04/12 10:20:30;;;;;;;6.88;2.65;;;17.30;62.10;;;;;;4927833;29;20057;-78
2022/04/12 10:22:58;;;;;;;7.53;2.90;;;17.30;62.20;;;;;;4932087;29;20063;-78
2022/04/12 10:25:26;;;;;;;7.80;4.00;;;17.30;62.30;;;;;;4945376;29;20411;-77
2022/04/12 10:27:56;;;;;;;10.05;3.85;;;17.30;62.30;;;;;;4931290;29;20094;-78
2022/04/12 10:30:27;;;;;;;7.32;2.65;;;17.30;62.30;;;;;;4930671;29;20481;-79
2022/04/12 10:33:00;;;;;;;8.50;3.13;;;17.30;62.30;;;;;;4928111;29;20047;-79
2022/04/12 10:35:59;;;;;;;7.72;4.07;;;17.40;62.40;;;;;;4923660;29;20045;-79
2022/04/12 10:38:36;;;;;;;7.25;3.42;;;17.50;62.40;;;;;;4925724;29;20056;-77
2022/04/12 10:41:30;;;;;;;8.77;3.47;;;17.60;62.40;;;;;;4921058;29;20139;-78
2022/04/12 10:43:58;;;;;;;7.60;3.25;;;17.60;62.20;;;;;;4922973;29;20036;-77
2022/04/12 10:46:26;;;;;;;9.25;3.13;;;17.70;62.10;;;;;;4923810;29;20036;-78
2022/04/12 10:48:56;;;;;;;5.95;2.53;;;17.80;62.10;;;;;;4922960;29;20040;-80
2022/04/12 10:51:39;;;;;;;6.88;2.88;;;17.90;62.70;;;;;;4929390;29;20046;-79
2022/04/12 10:54:09;;;;;;;11.50;3.22;;;18.00;62.20;;;;;;4929922;29;20083;-78
2022/04/12 10:56:35;;;;;;;10.20;3.60;;;18.00;62.00;;;;;;4927208;29;20036;-78
2022/04/12 10:59:02;;;;;;;9.73;3.95;;;18.00;61.90;;;;;;4933063;28;20038;-80
2022/04/12 11:01:35;;;;;;;9.82;4.00;;;18.00;62.00;;;;;;4951721;28;20043;-79
2022/04/12 11:04:03;;;;;;;5.40;2.72;;;18.00;62.10;;;;;;4948478;29;20393;-78
2022/04/12 11:06:31;;;;;;;9.43;2.88;;;18.00;62.10;;;;;;4947561;29;20046;-80
2022/04/12 11:09:06;;;;;;;10.40;3.70;;;18.10;62.30;;;;;;4944622;29;20031;-81
2022/04/12 11:11:52;;;;;;;5.80;2.80;;;18.00;62.20;;;;;;4946069;29;20174;-79
2022/04/12 11:14:29;;;;;;;6.43;2.70;;;18.10;62.60;;;;;;4933134;29;20036;-80
2022/04/12 11:16:59;;;;;;;9.68;3.42;;;18.10;62.60;;;;;;4929549;29;20074;-79
2022/04/12 11:19:25;;;;;;;7.53;2.78;;;18.10;62.60;;;;;;4911755;29;20031;-78
2022/04/12 11:21:55;;;;;;;6.10;2.97;;;18.20;62.70;;;;;;4928381;29;20471;-79
2022/04/12 11:24:25;;;;;;;9.70;3.60;;;18.20;62.70;;;;;;4923635;29;20047;-82
2022/04/12 11:27:03;;;;;;;5.90;2.75;;;18.20;63.20;;;;;;4925090;29;20040;-79
2022/04/12 11:29:29;;;;;;;5.07;2.58;;;18.20;62.70;;;;;;4923293;29;20036;-82
2022/04/12 11:31:56;;;;;;;9.93;3.33;;;18.20;62.60;;;;;;4929936;29;20092;-81
2022/04/12 11:34:27;;;;;;;7.63;3.28;;;18.20;62.60;;;;;;4917229;29;20122;-80
2022/04/12 11:36:59;;;;;;;8.95;3.50;;;18.20;62.50;;;;;;4921935;29;20126;-81
2022/04/12 11:39:30;;;;;;;10.23;4.00;;;18.30;62.60;;;;;;4923555;29;20060;-80
2022/04/12 11:42:08;;;;;;;6.80;3.38;;;18.20;62.30;;;;;;4927483;29;20423;-80
2022/04/12 11:44:34;;;;;;;9.80;3.65;;;18.30;62.40;;;;;;4928885;29;20061;-80
2022/04/12 11:47:05;;;;;;;7.72;3.83;;;18.30;62.30;;;;;;4927276;29;20522;-80
2022/04/12 11:49:36;;;;;;;5.15;2.90;;;18.40;62.50;;;;;;4926861;29;20126;-80
2022/04/12 11:52:08;;;;;;;10.60;3.55;;;18.50;62.50;;;;;;4927982;29;20510;-80
2022/04/12 11:54:36;;;;;;;8.57;3.65;;;18.60;62.40;;;;;;4923872;29;20020;-80
2022/04/12 11:57:05;;;;;;;12.90;4.38;;;18.80;62.50;;;;;;4925747;29;20055;-81
2022/04/12 11:59:33;;;;;;;7.47;3.47;;;19.00;62.50;;;;;;4930576;29;20488;-81
2022/04/12 12:02:02;;;;;;;16.77;4.70;;;19.10;62.20;;;;;;4921307;29;20040;-81
2022/04/12 12:04:35;;;;;;;11.52;3.63;;;19.30;62.20;;;;;;4927257;29;20105;-81
2022/04/12 12:07:06;;;;;;;8.60;3.33;;;19.50;62.20;;;;;;4920001;29;20363;-81
2022/04/12 12:09:34;;;;;;;7.47;3.05;;;19.60;62.10;;;;;;4922520;29;20199;-82
2022/04/12 12:12:04;;;;;;;6.75;2.80;;;19.80;62.20;;;;;;4926203;29;20024;-80
2022/04/12 12:14:31;;;;;;;7.97;2.70;;;19.90;61.90;;;;;;4925673;29;20031;-79
2022/04/12 12:17:08;;;;;;;7.70;3.78;;;20.20;62.00;;;;;;4920223;29;20040;-78
2022/04/12 12:19:38;;;;;;;7.32;3.10;;;20.40;61.80;;;;;;4923162;29;20546;-80
2022/04/12 12:22:07;;;;;;;9.63;4.18;;;20.50;61.60;;;;;;4917682;29;20184;-81
2022/04/12 12:24:37;;;;;;;6.75;2.88;;;20.60;61.50;;;;;;4931096;28;20067;-81
2022/04/12 12:27:06;;;;;;;8.00;3.10;;;20.70;61.40;;;;;;4925271;29;20035;-82
2022/04/12 12:29:38;;;;;;;6.90;3.10;;;20.70;61.20;;;;;;4930176;29;20067;-79
2022/04/12 12:32:04;;;;;;;7.75;4.03;;;20.80;61.20;;;;;;4928885;29;20390;-80
2022/04/12 12:34:32;;;;;;;7.22;3.10;;;20.90;61.20;;;;;;4920487;29;20118;-81
2022/04/12 12:37:05;;;;;;;5.38;2.90;;;20.90;61.10;;;;;;4928533;29;20049;-79
2022/04/12 12:39:35;;;;;;;;;;;20.80;60.80;;;;;;4926290;29;20052;-80
2022/04/12 12:42:02;;;;;;;8.05;3.72;;;20.80;60.90;;;;;;4929547;29;20366;-80
2022/04/12 12:44:36;;;;;;;7.60;3.22;;;20.70;60.90;;;;;;4929902;29;20106;-79
2022/04/12 12:47:04;;;;;;;6.55;2.78;;;20.60;60.80;;;;;;4929965;29;20123;-80
2022/04/12 12:49:37;;;;;;;6.85;3.53;;;20.60;60.90;;;;;;4928680;29;20028;-79
2022/04/12 12:52:12;;;;;;;7.68;3.35;;;20.50;60.70;;;;;;4928124;29;20046;-80
2022/04/12 12:54:38;;;;;;;8.93;3.42;;;20.50;60.70;;;;;;4921754;29;20376;-79